createdAt,value
2023-10-08T00:01:06.575Z,1.92
2023-10-08T00:03:34.526Z,1.42
2023-10-08T00:06:07.961Z,1.77
2023-10-08T00:08:35.374Z,1.52
2023-10-08T00:11:11.377Z,1.53
2023-10-08T00:13:42.741Z,1.52
2023-10-08T00:16:11.468Z,1.98
2023-10-08T00:18:42.295Z,1.70
2023-10-08T00:21:12.179Z,1.73
2023-10-08T00:23:43.395Z,1.23
2023-10-08T00:26:11.098Z,1.60
2023-10-08T00:28:38.515Z,1.83
2023-10-08T00:31:12.572Z,1.50
2023-10-08T00:33:45.417Z,1.42
2023-10-08T00:36:20.000Z,1.83
2023-10-08T00:39:00.410Z,1.65
2023-10-08T00:41:35.083Z,1.50
2023-10-08T00:44:02.759Z,1.70
2023-10-08T00:46:33.608Z,1.73
2023-10-08T00:49:25.474Z,1.60
2023-10-08T00:52:17.893Z,1.55
2023-10-08T00:54:50.500Z,1.40
2023-10-08T00:57:23.094Z,1.65
2023-10-08T00:59:58.914Z,1.37
2023-10-08T01:02:30.081Z,1.63
2023-10-08T01:05:01.227Z,1.75
2023-10-08T01:07:33.327Z,1.77
2023-10-08T01:10:02.749Z,1.40
2023-10-08T01:12:35.921Z,1.80
2023-10-08T01:15:25.191Z,1.80
2023-10-08T01:17:59.500Z,1.70
2023-10-08T01:20:38.314Z,1.50
2023-10-08T01:23:15.146Z,1.25
2023-10-08T01:25:44.092Z,1.70
2023-10-08T01:28:24.018Z,1.60
2023-10-08T01:30:55.719Z,1.20
2023-10-08T01:33:23.879Z,1.50
2023-10-08T01:35:51.011Z,1.87
2023-10-08T01:38:24.711Z,1.58
2023-10-08T01:40:52.458Z,1.53
2023-10-08T01:43:20.534Z,2.00
2023-10-08T01:45:53.711Z,1.35
2023-10-08T01:48:22.050Z,1.83
2023-10-08T01:50:49.095Z,1.85
2023-10-08T01:53:17.676Z,1.80
2023-10-08T01:55:50.490Z,1.58
2023-10-08T01:58:18.806Z,1.87
2023-10-08T02:00:47.033Z,1.98
2023-10-08T02:03:19.435Z,1.52
2023-10-08T02:05:47.847Z,1.63
2023-10-08T02:08:18.412Z,1.65
2023-10-08T02:10:48.406Z,1.75
2023-10-08T02:13:17.441Z,1.52
2023-10-08T02:15:46.740Z,1.25
2023-10-08T02:18:14.051Z,1.60
2023-10-08T02:20:41.502Z,1.70
2023-10-08T02:23:09.005Z,1.60
2023-10-08T02:25:36.486Z,1.52
2023-10-08T02:28:04.737Z,1.60
2023-10-08T02:30:32.242Z,1.70
2023-10-08T02:32:59.755Z,1.62
2023-10-08T02:35:28.750Z,1.70
2023-10-08T02:37:56.104Z,1.50
2023-10-08T02:40:29.285Z,1.45
2023-10-08T02:42:59.592Z,1.97
2023-10-08T02:45:30.396Z,1.70
2023-10-08T02:47:58.493Z,1.90
2023-10-08T02:50:28.614Z,1.60
2023-10-08T02:52:55.572Z,1.52
2023-10-08T02:55:34.352Z,1.50
2023-10-08T02:58:04.847Z,1.77
2023-10-08T03:00:35.057Z,1.80
2023-10-08T03:03:10.919Z,1.62
2023-10-08T03:05:38.419Z,1.80
2023-10-08T03:08:12.031Z,1.30
2023-10-08T03:10:42.885Z,1.60
2023-10-08T03:13:14.188Z,1.25
2023-10-08T03:16:20.257Z,2.42
2023-10-08T03:18:51.390Z,1.52
2023-10-08T03:21:24.465Z,1.60
2023-10-08T03:23:52.910Z,2.03
2023-10-08T03:26:32.719Z,1.50
2023-10-08T03:29:09.202Z,1.42
2023-10-08T03:31:51.318Z,2.28
2023-10-08T03:34:20.470Z,1.83
2023-10-08T03:36:50.767Z,1.60
2023-10-08T03:39:20.626Z,1.58
2023-10-08T03:42:00.961Z,1.70
2023-10-08T03:44:30.910Z,1.60
2023-10-08T03:46:58.489Z,1.60
2023-10-08T03:49:25.354Z,1.80
2023-10-08T03:51:53.758Z,1.60
2023-10-08T03:54:31.323Z,1.55
2023-10-08T03:56:59.125Z,1.48
2023-10-08T03:59:41.652Z,1.53
2023-10-08T04:02:15.873Z,1.90
2023-10-08T04:04:50.589Z,1.60
2023-10-08T04:07:26.053Z,1.40
2023-10-08T04:10:06.654Z,1.77
2023-10-08T04:12:36.001Z,1.30
2023-10-08T04:15:08.711Z,1.67
2023-10-08T04:17:45.065Z,1.65
2023-10-08T04:20:37.167Z,1.58
2023-10-08T04:23:06.160Z,1.42
2023-10-08T04:25:34.129Z,1.67
2023-10-08T04:28:02.312Z,1.60
2023-10-08T04:30:36.416Z,1.30
2023-10-08T04:33:08.399Z,1.30
2023-10-08T04:35:49.563Z,1.40
2023-10-08T04:38:20.012Z,1.40
2023-10-08T04:40:49.900Z,1.52
2023-10-08T04:43:24.013Z,1.65
2023-10-08T04:45:51.136Z,2.87
2023-10-08T04:48:21.992Z,1.50
2023-10-08T04:51:02.569Z,1.47
2023-10-08T04:53:38.462Z,1.90
2023-10-08T04:56:08.236Z,1.27
2023-10-08T04:58:38.380Z,1.87
2023-10-08T05:01:24.549Z,1.37
2023-10-08T05:03:59.621Z,1.70
2023-10-08T05:06:37.444Z,1.92
2023-10-08T05:09:38.406Z,1.27
2023-10-08T05:12:24.033Z,1.80
2023-10-08T05:15:09.593Z,1.37
2023-10-08T05:17:47.596Z,1.47
2023-10-08T05:20:33.199Z,1.27
2023-10-08T05:23:18.619Z,2.00
2023-10-08T05:26:04.228Z,1.60
2023-10-08T05:28:32.114Z,1.27
2023-10-08T05:31:28.745Z,1.30
2023-10-08T05:34:14.410Z,1.52
2023-10-08T05:37:01.135Z,1.12
2023-10-08T05:39:35.553Z,1.62
2023-10-08T05:42:18.117Z,1.33
2023-10-08T05:45:12.335Z,1.50
2023-10-08T05:47:52.906Z,1.50
2023-10-08T05:50:20.122Z,1.52
2023-10-08T05:53:03.062Z,1.40
2023-10-08T05:55:35.566Z,1.90
2023-10-08T05:58:15.007Z,1.63
2023-10-08T06:00:51.996Z,1.50
2023-10-08T06:03:57.937Z,1.30
2023-10-08T06:06:37.075Z,1.00
2023-10-08T06:09:10.566Z,1.60
2023-10-08T06:11:45.707Z,1.30
2023-10-08T06:14:28.239Z,1.77
2023-10-08T06:17:14.702Z,1.10
2023-10-08T06:19:41.957Z,1.58
2023-10-08T06:22:08.833Z,1.65
2023-10-08T06:24:42.979Z,1.57
2023-10-08T06:27:11.131Z,1.70
2023-10-08T06:29:46.262Z,1.30
2023-10-08T06:32:13.829Z,1.50
2023-10-08T06:34:42.879Z,1.50
2023-10-08T06:37:10.053Z,1.50
2023-10-08T06:39:49.082Z,1.33
2023-10-08T06:42:17.277Z,1.48
2023-10-08T06:44:47.712Z,1.62
2023-10-08T06:47:17.520Z,1.60
2023-10-08T06:49:45.028Z,1.40
2023-10-08T06:52:17.027Z,1.27
2023-10-08T06:54:44.273Z,1.60
2023-10-08T06:57:15.557Z,1.60
2023-10-08T06:59:44.174Z,1.67
2023-10-08T07:02:12.237Z,1.40
2023-10-08T07:04:41.192Z,1.70
2023-10-08T07:07:10.734Z,1.98
2023-10-08T07:09:37.731Z,1.70
2023-10-08T07:12:15.313Z,1.50
2023-10-08T07:14:43.157Z,1.73
2023-10-08T07:17:21.383Z,2.00
2023-10-08T07:19:52.450Z,1.83
2023-10-08T07:22:23.349Z,1.67
2023-10-08T07:24:52.493Z,2.10
2023-10-08T07:27:25.963Z,1.60
2023-10-08T07:29:57.838Z,1.55
2023-10-08T07:32:27.111Z,1.87
2023-10-08T07:34:59.275Z,1.83
2023-10-08T07:37:27.752Z,1.90
2023-10-08T07:39:56.581Z,1.67
2023-10-08T07:42:23.549Z,2.03
2023-10-08T07:44:55.638Z,1.87
2023-10-08T07:47:23.142Z,2.00
2023-10-08T07:49:53.368Z,1.65
2023-10-08T07:52:20.292Z,1.90
2023-10-08T07:54:47.197Z,1.77
2023-10-08T07:57:18.770Z,1.80
2023-10-08T07:59:49.821Z,1.62
2023-10-08T08:02:19.353Z,1.92
2023-10-08T08:04:48.016Z,1.70
2023-10-08T08:07:17.513Z,1.73
2023-10-08T08:09:53.600Z,1.85
2023-10-08T08:12:24.135Z,1.35
2023-10-08T08:14:55.333Z,1.60
2023-10-08T08:17:24.174Z,2.10
2023-10-08T08:19:53.536Z,1.70
2023-10-08T08:22:23.430Z,2.00
2023-10-08T08:24:58.250Z,1.62
2023-10-08T08:27:35.872Z,1.77
2023-10-08T08:30:11.333Z,1.87
2023-10-08T08:32:44.430Z,1.80
2023-10-08T08:35:13.418Z,1.95
2023-10-08T08:37:41.366Z,1.80
2023-10-08T08:40:21.287Z,1.75
2023-10-08T08:42:51.248Z,1.80
2023-10-08T08:45:26.140Z,1.60
2023-10-08T08:47:54.534Z,1.60
2023-10-08T08:50:22.630Z,1.90
2023-10-08T08:52:49.828Z,1.92
2023-10-08T08:55:18.789Z,2.20
2023-10-08T08:57:48.700Z,1.50
2023-10-08T09:00:18.377Z,1.60
2023-10-08T09:02:49.335Z,1.95
2023-10-08T09:05:36.262Z,2.85
2023-10-08T09:08:10.829Z,2.30
2023-10-08T09:10:39.794Z,1.60
2023-10-08T09:13:12.489Z,1.58
2023-10-08T09:15:39.694Z,1.85
2023-10-08T09:18:07.905Z,1.23
2023-10-08T09:20:45.108Z,1.40
2023-10-08T09:23:15.130Z,2.67
2023-10-08T09:25:45.317Z,1.70
2023-10-08T09:28:15.990Z,1.65
2023-10-08T09:30:46.498Z,1.52
2023-10-08T09:33:15.419Z,2.10
2023-10-08T09:35:44.791Z,1.50
2023-10-08T09:38:13.342Z,1.25
2023-10-08T09:40:42.950Z,0.98
2023-10-08T09:43:12.513Z,1.05
2023-10-08T09:45:42.076Z,0.83
2023-10-08T09:48:13.512Z,0.80
2023-10-08T09:50:42.930Z,0.40
2023-10-08T09:53:21.302Z,0.52
2023-10-08T09:55:56.180Z,0.32
2023-10-08T09:58:25.747Z,0.47
2023-10-08T10:00:57.819Z,0.20
2023-10-08T10:03:28.092Z,0.30
2023-10-08T10:06:00.069Z,0.30
2023-10-08T10:08:29.778Z,0.30
2023-10-08T10:11:01.441Z,0.33
2023-10-08T10:13:30.392Z,0.20
2023-10-08T10:15:59.717Z,0.25
2023-10-08T10:18:32.503Z,0.20
2023-10-08T10:21:02.504Z,0.32
2023-10-08T10:23:41.470Z,0.20
2023-10-08T10:26:27.588Z,0.30
2023-10-08T10:29:15.869Z,0.30
2023-10-08T10:31:54.526Z,0.43
2023-10-08T10:34:31.681Z,0.90
2023-10-08T10:37:03.889Z,0.43
2023-10-08T10:39:34.702Z,0.45
2023-10-08T10:42:03.551Z,0.40
2023-10-08T10:44:32.138Z,0.35
2023-10-08T10:47:19.312Z,0.40
2023-10-08T10:50:09.828Z,0.27
2023-10-08T10:52:46.550Z,0.10
2023-10-08T10:55:15.594Z,0.28
2023-10-08T10:58:13.246Z,0.10
2023-10-08T11:00:43.859Z,0.10
2023-10-08T11:03:18.218Z,0.10
2023-10-08T11:05:52.616Z,0.15
2023-10-08T11:08:20.312Z,0.10
2023-10-08T11:10:59.810Z,0.10
2023-10-08T11:13:38.435Z,0.10
2023-10-08T11:16:08.779Z,0.10
2023-10-08T11:18:36.915Z,0.10
2023-10-08T11:21:17.746Z,0.10
2023-10-08T11:23:54.721Z,0.10
2023-10-08T11:26:33.691Z,0.10
2023-10-08T11:29:02.115Z,0.10
2023-10-08T11:31:30.232Z,0.10
2023-10-08T11:34:02.949Z,0.10
2023-10-08T11:36:30.476Z,0.10
2023-10-08T11:39:12.360Z,0.10
2023-10-08T11:41:51.990Z,0.20
2023-10-08T11:44:24.719Z,0.13
2023-10-08T11:46:57.456Z,0.20
2023-10-08T11:49:27.892Z,0.20
2023-10-08T11:51:56.847Z,0.15
2023-10-08T11:54:24.793Z,0.20
2023-10-08T11:56:52.049Z,0.10
2023-10-08T11:59:20.362Z,0.10
2023-10-08T12:01:47.465Z,0.20
2023-10-08T12:04:24.530Z,0.30
2023-10-08T12:06:53.686Z,0.10
2023-10-08T12:09:23.101Z,0.10
2023-10-08T12:11:50.395Z,0.10
2023-10-08T12:14:18.041Z,0.40
2023-10-08T12:16:47.203Z,0.10
2023-10-08T12:19:17.445Z,0.10
2023-10-08T12:21:49.252Z,0.10
2023-10-08T12:24:16.961Z,0.40
2023-10-08T12:26:47.094Z,0.10
2023-10-08T12:29:21.248Z,0.30
2023-10-08T12:31:49.202Z,0.20
2023-10-08T12:34:18.139Z,0.30
2023-10-08T12:36:47.267Z,0.30
2023-10-08T12:39:17.754Z,0.10
2023-10-08T12:41:46.300Z,0.25
2023-10-08T12:44:21.731Z,0.13
2023-10-08T12:46:50.205Z,0.20
2023-10-08T12:49:18.319Z,0.28
2023-10-08T12:51:47.195Z,0.20
2023-10-08T12:54:23.338Z,0.20
2023-10-08T12:56:50.841Z,0.27
2023-10-08T12:59:25.751Z,0.20
2023-10-08T13:01:55.973Z,0.45
2023-10-08T13:04:29.313Z,0.30
2023-10-08T13:07:02.758Z,0.30
2023-10-08T13:09:33.075Z,0.10
2023-10-08T13:12:02.106Z,0.20
2023-10-08T13:14:31.043Z,0.50
2023-10-08T13:17:00.601Z,0.30
2023-10-08T13:19:32.313Z,0.30
2023-10-08T13:22:02.510Z,0.10
2023-10-08T13:24:32.355Z,0.20
2023-10-08T13:27:01.253Z,0.13
2023-10-08T13:29:34.650Z,0.30
2023-10-08T13:32:05.675Z,0.15
2023-10-08T13:34:34.667Z,0.20
2023-10-08T13:37:03.117Z,0.10
2023-10-08T13:39:34.179Z,0.20
2023-10-08T13:42:06.441Z,0.20
2023-10-08T13:44:37.755Z,0.20
2023-10-08T13:47:16.757Z,0.13
2023-10-08T13:49:46.288Z,0.13
2023-10-08T13:52:16.607Z,0.30
2023-10-08T13:54:53.071Z,0.20
2023-10-08T13:57:22.215Z,0.20
2023-10-08T13:59:53.299Z,0.20
2023-10-08T14:02:23.288Z,0.47
2023-10-08T14:04:54.400Z,0.20
2023-10-08T14:07:26.238Z,0.20
2023-10-08T14:09:55.527Z,0.20
2023-10-08T14:12:26.603Z,0.33
2023-10-08T14:14:58.236Z,0.35
2023-10-08T14:17:44.704Z,0.30
2023-10-08T14:20:23.053Z,0.30
2023-10-08T14:22:58.956Z,0.25
2023-10-08T14:25:29.719Z,0.30
2023-10-08T14:28:06.074Z,0.50
2023-10-08T14:30:42.514Z,0.40
2023-10-08T14:33:14.731Z,0.30
2023-10-08T14:36:01.560Z,0.40
2023-10-08T14:38:49.240Z,0.50
2023-10-08T14:41:36.465Z,0.40
2023-10-08T14:44:08.120Z,0.40
2023-10-08T14:46:38.589Z,0.52
2023-10-08T14:49:11.043Z,0.60
2023-10-08T14:51:42.978Z,0.50
2023-10-08T14:54:12.240Z,0.60
2023-10-08T14:56:41.569Z,0.50
2023-10-08T14:59:10.805Z,0.60
2023-10-08T15:01:41.628Z,0.50
2023-10-08T15:04:12.982Z,0.50
2023-10-08T15:06:41.935Z,0.70
2023-10-08T15:09:11.091Z,0.70
2023-10-08T15:11:40.710Z,0.68
2023-10-08T15:14:11.168Z,0.70
2023-10-08T15:16:42.454Z,0.60
2023-10-08T15:19:13.557Z,0.60
2023-10-08T15:21:42.408Z,0.73
2023-10-08T15:24:15.717Z,0.60
2023-10-08T15:26:43.627Z,0.80
2023-10-08T15:29:11.654Z,0.60
2023-10-08T15:31:42.176Z,0.77
2023-10-08T15:34:24.930Z,0.60
2023-10-08T15:37:01.352Z,0.70
2023-10-08T15:39:30.224Z,0.70
2023-10-08T15:41:58.427Z,0.60
2023-10-08T15:44:26.665Z,0.70
2023-10-08T15:46:54.446Z,0.70
2023-10-08T15:49:22.041Z,0.88
2023-10-08T15:51:50.303Z,0.82
2023-10-08T15:54:22.452Z,0.77
2023-10-08T15:56:50.673Z,0.80
2023-10-08T15:59:18.869Z,0.70
2023-10-08T16:01:49.474Z,1.00
2023-10-08T16:04:17.227Z,1.15
2023-10-08T16:06:44.939Z,0.60
2023-10-08T16:09:13.935Z,0.93
2023-10-08T16:11:42.125Z,0.68
2023-10-08T16:14:11.505Z,0.62
2023-10-08T16:16:40.736Z,0.70
2023-10-08T16:19:11.750Z,0.80
2023-10-08T16:21:41.003Z,0.77
2023-10-08T16:24:09.570Z,0.85
2023-10-08T16:26:39.002Z,1.02
2023-10-08T16:29:07.466Z,0.90
2023-10-08T16:31:42.465Z,0.87
2023-10-08T16:34:11.157Z,0.75
2023-10-08T16:36:39.863Z,0.80
2023-10-08T16:39:08.428Z,0.88
2023-10-08T16:41:39.189Z,0.90
2023-10-08T16:44:07.694Z,0.77
2023-10-08T16:46:35.649Z,0.93
2023-10-08T16:49:05.257Z,1.08
2023-10-08T16:51:35.110Z,0.90
2023-10-08T16:54:27.334Z,1.20
2023-10-08T16:56:55.544Z,0.90
2023-10-08T16:59:26.149Z,1.00
2023-10-08T17:01:55.724Z,0.90
2023-10-08T17:04:29.307Z,1.00
2023-10-08T17:06:59.141Z,0.80
2023-10-08T17:09:28.413Z,0.93
2023-10-08T17:12:01.533Z,1.00
2023-10-08T17:14:29.591Z,1.10
2023-10-08T17:16:57.906Z,0.88
2023-10-08T17:19:28.179Z,0.95
2023-10-08T17:21:56.368Z,1.10
2023-10-08T17:24:24.880Z,1.27
2023-10-08T17:27:04.309Z,1.08
2023-10-08T17:29:40.260Z,0.90
2023-10-08T17:32:08.443Z,1.12
2023-10-08T17:34:37.909Z,0.77
2023-10-08T17:37:06.289Z,0.73
2023-10-08T17:39:34.439Z,0.90
2023-10-08T17:42:03.246Z,1.23
2023-10-08T17:44:32.151Z,0.95
2023-10-08T17:47:00.546Z,0.77
2023-10-08T17:49:33.453Z,0.82
2023-10-08T17:52:01.813Z,1.20
2023-10-08T17:54:38.865Z,0.70
2023-10-08T17:57:06.475Z,1.00
2023-10-08T17:59:34.983Z,0.73
2023-10-08T18:02:03.515Z,0.70
2023-10-08T18:04:33.315Z,0.65
2023-10-08T18:07:03.173Z,0.90
2023-10-08T18:09:31.741Z,0.98
2023-10-08T18:12:03.570Z,1.00
2023-10-08T18:14:35.032Z,0.68
2023-10-08T18:17:06.576Z,0.90
2023-10-08T18:19:37.704Z,0.77
2023-10-08T18:22:05.858Z,0.70
2023-10-08T18:24:35.700Z,1.13
2023-10-08T18:27:04.693Z,0.70
2023-10-08T18:29:35.107Z,0.90
2023-10-08T18:32:07.197Z,0.82
2023-10-08T18:34:38.062Z,0.98
2023-10-08T18:37:06.344Z,0.60
2023-10-08T18:39:37.214Z,0.80
2023-10-08T18:42:09.981Z,0.60
2023-10-08T18:44:38.178Z,0.98
2023-10-08T18:47:08.354Z,0.55
2023-10-08T18:49:45.631Z,0.83
2023-10-08T18:52:17.346Z,0.80
2023-10-08T18:54:50.411Z,0.80
2023-10-08T18:57:19.667Z,0.68
2023-10-08T18:59:48.574Z,0.90
2023-10-08T19:02:17.153Z,0.80
2023-10-08T19:04:46.099Z,0.68
2023-10-08T19:07:15.684Z,0.60
2023-10-08T19:09:45.085Z,0.70
2023-10-08T19:12:14.975Z,0.80
2023-10-08T19:14:43.894Z,0.80
2023-10-08T19:17:16.375Z,0.70
2023-10-08T19:19:51.655Z,0.70
2023-10-08T19:22:22.161Z,0.70
2023-10-08T19:24:56.697Z,0.70
2023-10-08T19:27:27.266Z,0.60
2023-10-08T19:29:58.739Z,0.68
2023-10-08T19:32:27.847Z,0.68
2023-10-08T19:34:56.870Z,1.00
2023-10-08T19:37:25.419Z,1.50
2023-10-08T19:39:56.506Z,0.70
2023-10-08T19:42:28.501Z,1.00
2023-10-08T19:44:57.919Z,1.02
2023-10-08T19:47:32.540Z,0.60
2023-10-08T19:50:01.022Z,0.93
2023-10-08T19:52:30.708Z,1.00
2023-10-08T19:55:00.185Z,0.73
2023-10-08T19:57:28.939Z,0.80
2023-10-08T19:59:59.933Z,0.82
2023-10-08T20:02:30.034Z,0.80
2023-10-08T20:05:02.350Z,1.03
2023-10-08T20:07:31.704Z,0.90
2023-10-08T20:09:59.628Z,2.90
2023-10-08T20:12:29.452Z,2.30
2023-10-08T20:14:58.948Z,1.45
2023-10-08T20:17:26.881Z,1.70
2023-10-08T20:19:54.291Z,1.75
2023-10-08T20:22:22.849Z,1.25
2023-10-08T20:24:51.060Z,1.00
2023-10-08T20:27:19.156Z,1.23
2023-10-08T20:29:46.660Z,1.37
2023-10-08T20:32:15.225Z,1.15
2023-10-08T20:34:42.819Z,1.30
2023-10-08T20:37:10.187Z,1.10
2023-10-08T20:39:40.542Z,0.70
2023-10-08T20:42:08.972Z,0.80
2023-10-08T20:44:36.258Z,0.88
2023-10-08T20:47:04.744Z,0.40
2023-10-08T20:49:33.229Z,0.50
2023-10-08T20:52:00.978Z,0.60
2023-10-08T20:54:30.193Z,0.63
2023-10-08T20:56:58.229Z,0.57
2023-10-08T20:59:26.107Z,0.40
2023-10-08T21:01:55.197Z,0.52
2023-10-08T21:04:22.477Z,0.60
2023-10-08T21:06:50.717Z,0.27
2023-10-08T21:09:17.901Z,0.57
2023-10-08T21:11:47.663Z,0.30
2023-10-08T21:14:15.384Z,0.40
2023-10-08T21:16:42.596Z,0.30
2023-10-08T21:19:10.000Z,0.20
2023-10-08T21:21:37.115Z,0.40
2023-10-08T21:24:07.361Z,0.68
2023-10-08T21:26:34.258Z,0.40
2023-10-08T21:29:01.102Z,0.40
2023-10-08T21:31:28.158Z,0.40
2023-10-08T21:33:55.218Z,0.30
2023-10-08T21:36:22.331Z,0.40
2023-10-08T21:38:49.301Z,0.30
2023-10-08T21:41:16.600Z,0.32
2023-10-08T21:43:43.789Z,0.30
2023-10-08T21:46:12.301Z,0.30
2023-10-08T21:48:39.731Z,0.40
2023-10-08T21:51:11.458Z,0.60
2023-10-08T21:53:38.623Z,0.40
2023-10-08T21:56:09.742Z,0.33
2023-10-08T21:58:36.705Z,0.32
2023-10-08T22:01:10.754Z,0.30
2023-10-08T22:03:38.380Z,0.37
2023-10-08T22:06:05.741Z,0.40
2023-10-08T22:08:33.227Z,0.30
2023-10-08T22:11:00.426Z,0.60
2023-10-08T22:13:29.117Z,0.57
2023-10-08T22:15:57.392Z,0.37
2023-10-08T22:18:31.268Z,0.40
2023-10-08T22:21:08.083Z,0.33
2023-10-08T22:23:40.541Z,0.50
2023-10-08T22:26:12.333Z,0.30
2023-10-08T22:28:43.628Z,0.40
2023-10-08T22:31:17.003Z,0.40
2023-10-08T22:33:47.831Z,0.50
2023-10-08T22:36:21.808Z,0.47
2023-10-08T22:38:49.958Z,0.30
2023-10-08T22:41:17.275Z,0.50
2023-10-08T22:43:44.490Z,0.40
2023-10-08T22:46:12.959Z,0.57
2023-10-08T22:48:44.947Z,0.45
2023-10-08T22:51:19.224Z,0.50
2023-10-08T22:53:48.250Z,0.40
2023-10-08T22:56:15.422Z,0.43
2023-10-08T22:58:43.315Z,0.40
2023-10-08T23:01:19.656Z,0.50
2023-10-08T23:03:54.566Z,0.60
2023-10-08T23:06:25.418Z,0.37
2023-10-08T23:08:55.727Z,0.40
2023-10-08T23:11:22.650Z,0.47
2023-10-08T23:13:51.647Z,0.50
2023-10-08T23:16:22.848Z,0.73
2023-10-08T23:18:56.382Z,0.70
2023-10-08T23:21:25.870Z,0.50
2023-10-08T23:23:53.192Z,0.60
2023-10-08T23:26:20.249Z,0.30
2023-10-08T23:28:47.387Z,0.50
2023-10-08T23:31:14.865Z,0.32
2023-10-08T23:33:48.880Z,0.50
2023-10-08T23:36:28.343Z,0.30
2023-10-08T23:39:07.539Z,0.62
2023-10-08T23:41:48.996Z,0.60
2023-10-08T23:44:19.778Z,0.35
2023-10-08T23:46:46.939Z,0.40
2023-10-08T23:49:17.502Z,0.40
2023-10-08T23:51:52.363Z,0.60
2023-10-08T23:54:26.606Z,0.43
2023-10-08T23:57:00.809Z,0.45
2023-10-08T23:59:41.712Z,0.40
